createdAt,value
2019-02-12T00:00:11.128Z,3.87
2019-02-12T00:02:39.688Z,3.95
2019-02-12T00:05:08.289Z,3.94
2019-02-12T00:07:36.835Z,3.92
2019-02-12T00:10:06.285Z,3.93
2019-02-12T00:12:34.736Z,3.96
2019-02-12T00:15:04.095Z,3.94
2019-02-12T00:17:32.545Z,3.76
2019-02-12T00:20:01.093Z,3.84
2019-02-12T00:22:29.645Z,3.95
2019-02-12T00:24:58.117Z,3.90
2019-02-12T00:27:26.587Z,3.90
2019-02-12T00:29:55.104Z,3.92
2019-02-12T00:32:23.587Z,3.83
2019-02-12T00:34:52.046Z,3.79
2019-02-12T00:37:20.517Z,3.85
2019-02-12T00:39:49.383Z,3.76
2019-02-12T00:42:17.872Z,3.78
2019-02-12T00:44:46.453Z,3.81
2019-02-12T00:47:14.929Z,3.85
2019-02-12T00:49:43.740Z,3.85
2019-02-12T00:52:12.247Z,3.84
2019-02-12T00:54:40.713Z,3.93
2019-02-12T00:57:09.167Z,3.89
2019-02-12T00:59:37.643Z,3.86
2019-02-12T01:02:06.161Z,3.86
2019-02-12T01:04:34.875Z,3.84
2019-02-12T01:07:03.408Z,3.81
2019-02-12T01:09:32.254Z,3.76
2019-02-12T01:12:00.719Z,3.63
2019-02-12T01:14:29.240Z,3.63
2019-02-12T01:16:57.752Z,3.61
2019-02-12T01:19:26.252Z,3.59
2019-02-12T01:21:54.724Z,3.60
2019-02-12T01:24:23.292Z,3.58
2019-02-12T01:26:51.854Z,3.54
2019-02-12T01:29:20.238Z,3.54
2019-02-12T01:31:48.812Z,3.54
2019-02-12T01:34:17.184Z,3.57
2019-02-12T01:36:45.696Z,3.57
2019-02-12T01:39:14.253Z,3.54
2019-02-12T01:41:42.773Z,3.60
2019-02-12T01:44:11.355Z,3.66
2019-02-12T01:46:39.867Z,3.62
2019-02-12T01:49:08.440Z,3.62
2019-02-12T01:51:37.216Z,3.63
2019-02-12T01:54:05.792Z,3.65
2019-02-12T01:56:34.394Z,3.62
2019-02-12T01:59:02.950Z,3.64
2019-02-12T02:01:31.509Z,3.67
2019-02-12T02:04:00.036Z,3.72
2019-02-12T02:06:28.626Z,3.75
2019-02-12T02:08:57.207Z,3.75
2019-02-12T02:11:25.756Z,3.80
2019-02-12T02:13:54.287Z,3.82
2019-02-12T02:16:22.856Z,3.84
2019-02-12T02:18:51.234Z,3.86
2019-02-12T02:21:19.942Z,3.82
2019-02-12T02:23:48.439Z,3.84
2019-02-12T02:26:16.855Z,3.88
2019-02-12T02:28:45.500Z,3.91
2019-02-12T02:31:14.284Z,3.89
2019-02-12T02:33:42.818Z,3.89
2019-02-12T02:36:11.350Z,3.85
2019-02-12T02:38:39.824Z,3.90
2019-02-12T02:41:08.449Z,3.93
2019-02-12T02:43:36.926Z,3.93
2019-02-12T02:46:05.594Z,3.87
2019-02-12T02:48:34.128Z,3.83
2019-02-12T02:51:02.599Z,3.77
2019-02-12T02:53:31.128Z,3.82
2019-02-12T02:55:59.660Z,3.77
2019-02-12T02:58:28.247Z,3.84
2019-02-12T03:00:56.844Z,3.84
2019-02-12T03:03:25.371Z,3.85
2019-02-12T03:05:54.020Z,3.85
2019-02-12T03:08:22.759Z,3.84
2019-02-12T03:10:52.333Z,3.78
2019-02-12T03:13:20.915Z,3.75
2019-02-12T03:15:49.695Z,3.73
2019-02-12T03:18:18.334Z,3.80
2019-02-12T03:20:46.950Z,3.73
2019-02-12T03:23:15.435Z,3.75
2019-02-12T03:25:43.922Z,3.61
2019-02-12T03:28:12.405Z,3.58
2019-02-12T03:30:41.004Z,3.62
2019-02-12T03:33:09.661Z,3.53
2019-02-12T03:35:38.099Z,3.48
2019-02-12T03:38:06.876Z,3.51
2019-02-12T03:40:35.471Z,3.46
2019-02-12T03:43:04.353Z,3.48
2019-02-12T03:45:32.910Z,3.44
2019-02-12T03:48:01.429Z,3.46
2019-02-12T03:50:30.349Z,3.37
2019-02-12T03:52:59.241Z,3.44
2019-02-12T03:55:27.786Z,3.41
2019-02-12T03:57:56.266Z,3.41
2019-02-12T04:00:24.726Z,3.42
2019-02-12T04:03:00.731Z,3.36
2019-02-12T04:05:29.261Z,3.35
2019-02-12T04:07:57.807Z,3.34
2019-02-12T04:10:26.400Z,3.37
2019-02-12T04:12:54.871Z,3.39
2019-02-12T04:15:23.487Z,3.41
2019-02-12T04:17:51.883Z,3.43
2019-02-12T04:20:20.335Z,3.47
2019-02-12T04:22:49.058Z,3.37
2019-02-12T04:25:17.575Z,3.44
2019-02-12T04:27:46.323Z,3.41
2019-02-12T04:30:14.795Z,3.52
2019-02-12T04:32:43.458Z,3.52
2019-02-12T04:35:12.018Z,3.62
2019-02-12T04:37:40.513Z,3.55
2019-02-12T04:40:10.963Z,3.52
2019-02-12T04:42:39.444Z,3.55
2019-02-12T04:45:09.984Z,3.51
2019-02-12T04:47:38.474Z,3.58
2019-02-12T04:50:09.773Z,3.57
2019-02-12T04:52:38.358Z,3.56
2019-02-12T04:55:08.744Z,3.56
2019-02-12T04:57:37.591Z,3.59
2019-02-12T05:00:09.630Z,3.60
2019-02-12T05:02:38.143Z,3.57
2019-02-12T05:05:09.302Z,3.55
2019-02-12T05:07:38.108Z,3.56
2019-02-12T05:10:13.587Z,3.57
2019-02-12T05:12:42.144Z,3.56
2019-02-12T05:15:10.981Z,3.58
2019-02-12T05:17:39.581Z,3.55
2019-02-12T05:20:10.957Z,3.56
2019-02-12T05:22:43.485Z,3.53
2019-02-12T05:25:10.267Z,3.54
2019-02-12T05:27:38.838Z,3.46
2019-02-12T05:30:11.924Z,3.41
2019-02-12T05:32:40.431Z,3.42
2019-02-12T05:35:09.024Z,3.35
2019-02-12T05:37:37.672Z,3.22
2019-02-12T05:40:08.306Z,3.21
2019-02-12T05:42:36.816Z,3.20
2019-02-12T05:45:08.578Z,3.21
2019-02-12T05:47:37.248Z,3.19
2019-02-12T05:50:08.880Z,3.26
2019-02-12T05:52:37.372Z,3.20
2019-02-12T05:55:06.207Z,3.19
2019-02-12T05:57:34.715Z,3.27
2019-02-12T06:00:03.952Z,3.08
2019-02-12T06:02:32.634Z,3.13
2019-02-12T06:05:01.359Z,3.15
2019-02-12T06:07:29.909Z,3.22
2019-02-12T06:09:58.561Z,3.25
2019-02-12T06:12:27.121Z,3.25
2019-02-12T06:14:55.684Z,3.22
2019-02-12T06:17:24.045Z,3.22
2019-02-12T06:19:52.802Z,3.19
2019-02-12T06:22:21.309Z,3.20
2019-02-12T06:24:49.984Z,3.19
2019-02-12T06:27:18.511Z,3.23
2019-02-12T06:29:47.085Z,3.18
2019-02-12T06:32:15.599Z,3.15
2019-02-12T06:34:44.384Z,3.13
2019-02-12T06:37:12.844Z,3.15
2019-02-12T06:39:41.407Z,3.26
2019-02-12T06:42:09.850Z,3.26
2019-02-12T06:44:38.514Z,3.33
2019-02-12T06:47:07.296Z,3.36
2019-02-12T06:49:35.710Z,3.35
2019-02-12T06:52:04.240Z,3.35
2019-02-12T06:54:32.777Z,3.38
2019-02-12T06:57:01.303Z,3.43
2019-02-12T06:59:29.904Z,3.39
2019-02-12T07:02:34.396Z,3.44
2019-02-12T07:05:02.882Z,3.45
2019-02-12T07:07:46.531Z,3.46
2019-02-12T07:10:15.065Z,3.44
2019-02-12T07:12:49.703Z,3.48
2019-02-12T07:15:21.614Z,3.52
2019-02-12T07:18:08.081Z,3.53
2019-02-12T07:20:48.352Z,3.52
2019-02-12T07:23:39.255Z,3.57
2019-02-12T07:26:38.016Z,3.53
2019-02-12T07:29:27.356Z,3.59
2019-02-12T07:32:10.681Z,3.57
2019-02-12T07:34:51.308Z,3.58
2019-02-12T07:37:28.706Z,3.57
2019-02-12T07:40:03.265Z,3.62
2019-02-12T07:42:34.842Z,3.60
2019-02-12T07:45:39.069Z,3.62
2019-02-12T07:48:35.633Z,3.65
2019-02-12T07:51:19.227Z,3.68
2019-02-12T07:54:11.781Z,3.65
2019-02-12T07:56:51.931Z,3.62
2019-02-12T07:59:37.693Z,3.61
2019-02-12T08:02:26.492Z,3.63
2019-02-12T08:05:20.412Z,3.58
2019-02-12T08:08:11.305Z,3.66
2019-02-12T08:11:05.320Z,3.65
2019-02-12T08:13:54.221Z,3.64
2019-02-12T08:16:29.063Z,3.63
2019-02-12T08:19:00.608Z,3.65
2019-02-12T08:21:59.046Z,3.72
2019-02-12T08:24:42.434Z,3.67
2019-02-12T08:27:26.438Z,3.70
2019-02-12T08:30:16.261Z,3.67
2019-02-12T08:32:47.917Z,3.75
2019-02-12T08:35:25.433Z,3.81
2019-02-12T08:38:08.918Z,3.79
2019-02-12T08:40:56.533Z,3.82
2019-02-12T08:43:47.713Z,3.96
2019-02-12T08:46:22.165Z,4.17
2019-02-12T08:48:56.693Z,4.19
2019-02-12T08:51:37.044Z,4.35
2019-02-12T08:54:11.534Z,4.55
2019-02-12T08:56:58.075Z,4.60
2019-02-12T08:59:35.464Z,4.67
2019-02-12T09:02:16.070Z,4.71
2019-02-12T09:04:56.391Z,4.79
2019-02-12T09:07:36.834Z,4.88
2019-02-12T09:10:24.506Z,5.06
2019-02-12T09:13:02.203Z,5.15
2019-02-12T09:15:53.444Z,5.18
2019-02-12T09:18:30.521Z,5.06
2019-02-12T09:21:18.361Z,5.08
2019-02-12T09:24:03.497Z,5.15
2019-02-12T09:26:38.037Z,5.05
2019-02-12T09:29:44.073Z,5.03
2019-02-12T09:32:39.501Z,5.12
2019-02-12T09:35:34.843Z,5.13
2019-02-12T09:38:34.932Z,5.29
2019-02-12T09:41:12.162Z,5.35
2019-02-12T09:44:09.413Z,5.23
2019-02-12T09:46:55.647Z,5.37
2019-02-12T09:49:27.241Z,5.44
2019-02-12T09:52:30.071Z,5.51
2019-02-12T09:55:10.337Z,5.53
2019-02-12T09:57:53.627Z,5.58
2019-02-12T10:00:33.821Z,5.60
2019-02-12T10:03:20.325Z,5.48
2019-02-12T10:05:52.281Z,5.48
2019-02-12T10:08:35.968Z,5.56
2019-02-12T10:11:23.969Z,5.64
2019-02-12T10:14:29.985Z,5.76
2019-02-12T10:17:07.415Z,5.95
2019-02-12T10:19:53.648Z,6.02
2019-02-12T10:22:31.098Z,6.18
2019-02-12T10:25:03.034Z,6.24
2019-02-12T10:28:03.032Z,6.24
2019-02-12T10:30:40.722Z,6.19
2019-02-12T10:33:09.226Z,5.99
2019-02-12T10:35:37.774Z,6.04
2019-02-12T10:38:06.621Z,5.79
2019-02-12T10:40:35.225Z,5.84
2019-02-12T10:43:03.809Z,5.89
2019-02-12T10:45:32.392Z,5.99
2019-02-12T10:48:01.267Z,6.00
2019-02-12T10:50:29.749Z,5.97
2019-02-12T10:52:58.475Z,6.03
2019-02-12T10:55:27.033Z,6.14
2019-02-12T10:57:55.645Z,6.07
2019-02-12T11:00:24.359Z,6.02
2019-02-12T11:02:53.176Z,6.10
2019-02-12T11:05:21.919Z,6.13
2019-02-12T11:07:50.550Z,6.19
2019-02-12T11:10:19.150Z,6.22
2019-02-12T11:12:47.859Z,6.17
2019-02-12T11:15:16.529Z,6.17
2019-02-12T11:17:45.099Z,6.09
2019-02-12T11:20:13.646Z,6.06
2019-02-12T11:22:42.209Z,6.05
2019-02-12T11:25:11.059Z,6.13
2019-02-12T11:27:39.528Z,6.29
2019-02-12T11:30:13.037Z,6.53
2019-02-12T11:32:41.602Z,6.83
2019-02-12T11:35:12.049Z,6.92
2019-02-12T11:37:40.808Z,6.90
2019-02-12T11:40:13.519Z,6.74
2019-02-12T11:42:42.080Z,6.60
2019-02-12T11:45:12.870Z,6.43
2019-02-12T11:47:41.530Z,6.33
2019-02-12T11:50:10.901Z,6.26
2019-02-12T11:52:39.499Z,6.30
2019-02-12T11:55:12.808Z,6.40
2019-02-12T11:57:41.383Z,6.24
2019-02-12T12:00:12.819Z,6.12
2019-02-12T12:02:42.223Z,6.13
2019-02-12T12:05:10.902Z,6.13
2019-02-12T12:07:39.443Z,6.07
2019-02-12T12:10:10.205Z,5.99
2019-02-12T12:12:38.730Z,5.89
2019-02-12T12:15:14.534Z,5.75
2019-02-12T12:17:43.082Z,5.76
2019-02-12T12:20:13.425Z,5.71
2019-02-12T12:22:42.432Z,5.75
2019-02-12T12:25:12.347Z,5.90
2019-02-12T12:27:40.953Z,5.94
2019-02-12T12:30:16.268Z,5.98
2019-02-12T12:32:44.736Z,6.05
2019-02-12T12:35:13.430Z,6.00
2019-02-12T12:37:42.065Z,5.95
2019-02-12T12:40:11.918Z,5.97
2019-02-12T12:42:40.348Z,6.24
2019-02-12T12:45:13.830Z,6.60
2019-02-12T12:47:42.491Z,6.76
2019-02-12T12:50:12.232Z,6.82
2019-02-12T12:52:41.363Z,6.65
2019-02-12T12:55:10.713Z,6.59
2019-02-12T12:57:41.806Z,6.65
2019-02-12T13:00:15.351Z,6.71
2019-02-12T13:02:44.005Z,6.94
2019-02-12T13:05:12.614Z,7.12
2019-02-12T13:07:41.375Z,7.12
2019-02-12T13:10:14.826Z,7.09
2019-02-12T13:12:43.354Z,7.15
2019-02-12T13:15:13.620Z,7.09
2019-02-12T13:17:42.207Z,6.97
2019-02-12T13:20:18.154Z,6.96
2019-02-12T13:22:50.359Z,6.96
2019-02-12T13:25:19.314Z,6.98
2019-02-12T13:27:47.836Z,7.15
2019-02-12T13:30:22.174Z,7.20
2019-02-12T13:32:50.771Z,7.18
2019-02-12T13:35:19.345Z,7.28
2019-02-12T13:37:48.827Z,7.46
2019-02-12T13:40:17.363Z,7.63
2019-02-12T13:42:47.230Z,7.61
2019-02-12T13:45:17.426Z,7.41
2019-02-12T13:47:46.295Z,7.29
2019-02-12T13:50:14.967Z,7.12
2019-02-12T13:52:43.501Z,6.87
2019-02-12T13:55:17.415Z,6.79
2019-02-12T13:57:42.714Z,6.73
2019-02-12T14:00:15.873Z,6.57
2019-02-12T14:02:44.388Z,6.48
2019-02-12T14:05:16.392Z,6.47
2019-02-12T14:07:45.016Z,6.40
2019-02-12T14:10:13.746Z,6.37
2019-02-12T14:12:42.249Z,6.36
2019-02-12T14:15:12.708Z,6.24
2019-02-12T14:17:41.353Z,6.24
2019-02-12T14:20:16.953Z,6.21
2019-02-12T14:22:45.554Z,6.28
2019-02-12T14:25:15.248Z,6.36
2019-02-12T14:27:43.789Z,6.45
2019-02-12T14:30:22.831Z,6.43
2019-02-12T14:32:51.879Z,6.39
2019-02-12T14:35:20.429Z,6.40
2019-02-12T14:37:48.905Z,6.34
2019-02-12T14:40:17.462Z,6.23
2019-02-12T14:42:45.950Z,6.18
2019-02-12T14:45:16.907Z,6.16
2019-02-12T14:47:45.458Z,6.05
2019-02-12T14:50:15.050Z,6.09
2019-02-12T14:52:43.503Z,6.08
2019-02-12T14:55:12.105Z,6.12
2019-02-12T14:57:40.749Z,6.10
2019-02-12T15:00:18.630Z,6.09
2019-02-12T15:02:47.416Z,6.19
2019-02-12T15:05:16.229Z,6.15
2019-02-12T15:07:44.825Z,6.09
2019-02-12T15:10:15.116Z,5.99
2019-02-12T15:12:44.107Z,5.91
2019-02-12T15:15:12.733Z,5.89
2019-02-12T15:17:41.717Z,5.83
2019-02-12T15:20:12.463Z,5.83
2019-02-12T15:22:41.398Z,5.82
2019-02-12T15:25:11.910Z,5.78
2019-02-12T15:27:40.622Z,5.69
2019-02-12T15:30:16.789Z,5.71
2019-02-12T15:32:45.315Z,5.69
2019-02-12T15:35:14.015Z,5.65
2019-02-12T15:37:42.549Z,5.62
2019-02-12T15:40:20.028Z,5.59
2019-02-12T15:42:48.575Z,5.57
2019-02-12T15:45:23.726Z,5.46
2019-02-12T15:47:52.250Z,5.46
2019-02-12T15:50:20.685Z,5.51
2019-02-12T15:52:49.154Z,5.41
2019-02-12T15:55:17.692Z,5.38
2019-02-12T15:57:46.526Z,5.34
2019-02-12T16:00:21.263Z,5.29
2019-02-12T16:02:49.764Z,5.26
2019-02-12T16:05:18.662Z,5.24
2019-02-12T16:07:47.701Z,5.20
2019-02-12T16:10:19.705Z,5.17
2019-02-12T16:12:48.928Z,5.14
2019-02-12T16:15:19.888Z,5.14
2019-02-12T16:17:49.215Z,5.16
2019-02-12T16:20:17.880Z,5.09
2019-02-12T16:22:46.491Z,5.04
2019-02-12T16:25:15.533Z,5.03
2019-02-12T16:27:44.255Z,4.99
2019-02-12T16:30:17.570Z,4.94
2019-02-12T16:32:46.140Z,4.91
2019-02-12T16:35:16.092Z,4.91
2019-02-12T16:37:44.751Z,4.87
2019-02-12T16:40:14.499Z,4.85
2019-02-12T16:42:43.085Z,4.82
2019-02-12T16:45:32.521Z,4.79
2019-02-12T16:48:01.069Z,4.76
2019-02-12T16:50:29.611Z,4.73
2019-02-12T16:52:58.263Z,4.72
2019-02-12T16:55:26.775Z,4.71
2019-02-12T16:57:55.313Z,4.69
2019-02-12T17:00:23.860Z,4.64
2019-02-12T17:02:52.382Z,4.64
2019-02-12T17:05:20.957Z,4.62
2019-02-12T17:07:49.540Z,4.61
2019-02-12T17:10:18.139Z,4.59
2019-02-12T17:12:46.724Z,4.56
2019-02-12T17:15:15.332Z,4.55
2019-02-12T17:17:44.085Z,4.53
2019-02-12T17:20:22.453Z,4.48
2019-02-12T17:22:51.007Z,4.49
2019-02-12T17:25:19.974Z,4.48
2019-02-12T17:27:48.416Z,4.42
2019-02-12T17:30:17.818Z,4.41
2019-02-12T17:32:46.492Z,4.40
2019-02-12T17:35:15.206Z,4.39
2019-02-12T17:37:43.878Z,4.37
2019-02-12T17:40:16.455Z,4.36
2019-02-12T17:42:45.322Z,4.32
2019-02-12T17:45:21.267Z,4.34
2019-02-12T17:47:49.719Z,4.33
2019-02-12T17:50:18.352Z,4.31
2019-02-12T17:52:46.942Z,4.32
2019-02-12T17:55:15.877Z,4.24
2019-02-12T17:57:44.510Z,4.23
2019-02-12T18:00:19.177Z,4.22
2019-02-12T18:02:47.983Z,4.17
2019-02-12T18:05:16.818Z,4.12
2019-02-12T18:07:45.445Z,4.08
2019-02-12T18:10:14.032Z,4.06
2019-02-12T18:12:42.785Z,4.04
2019-02-12T18:15:13.677Z,4.06
2019-02-12T18:17:42.226Z,4.07
2019-02-12T18:20:12.670Z,3.97
2019-02-12T18:22:41.440Z,3.97
2019-02-12T18:25:10.889Z,3.93
2019-02-12T18:27:40.423Z,3.89
2019-02-12T18:30:11.642Z,3.92
2019-02-12T18:32:40.256Z,3.88
2019-02-12T18:35:09.297Z,3.87
2019-02-12T18:37:37.827Z,3.79
2019-02-12T18:40:09.503Z,3.76
2019-02-12T18:42:38.126Z,3.80
2019-02-12T18:45:09.684Z,3.76
2019-02-12T18:47:38.254Z,3.72
2019-02-12T18:50:09.818Z,3.74
2019-02-12T18:52:38.956Z,3.66
2019-02-12T18:55:09.993Z,3.63
2019-02-12T18:57:38.592Z,3.59
2019-02-12T19:00:10.217Z,3.60
2019-02-12T19:02:38.794Z,3.57
2019-02-12T19:05:09.198Z,3.59
2019-02-12T19:07:39.646Z,3.62
2019-02-12T19:10:10.914Z,3.67
2019-02-12T19:12:39.564Z,3.69
2019-02-12T19:15:13.340Z,3.57
2019-02-12T19:17:43.107Z,3.60
2019-02-12T19:20:13.576Z,3.63
2019-02-12T19:22:42.991Z,3.70
2019-02-12T19:25:12.164Z,3.69
2019-02-12T19:27:41.058Z,3.70
2019-02-12T19:30:16.599Z,3.68
2019-02-12T19:32:45.268Z,3.74
2019-02-12T19:35:14.991Z,3.76
2019-02-12T19:37:44.246Z,3.80
2019-02-12T19:40:13.480Z,3.82
2019-02-12T19:42:42.229Z,3.81
2019-02-12T19:45:16.060Z,3.77
2019-02-12T19:47:44.973Z,3.74
2019-02-12T19:50:13.764Z,3.78
2019-02-12T19:52:42.399Z,3.77
2019-02-12T19:55:11.436Z,3.79
2019-02-12T19:57:40.248Z,3.71
2019-02-12T20:00:13.439Z,3.64
2019-02-12T20:02:42.175Z,3.57
2019-02-12T20:05:11.916Z,3.58
2019-02-12T20:07:40.499Z,3.63
2019-02-12T20:10:11.164Z,3.64
2019-02-12T20:12:39.883Z,3.59
2019-02-12T20:15:11.222Z,3.64
2019-02-12T20:17:39.969Z,3.66
2019-02-12T20:20:10.602Z,3.63
2019-02-12T20:22:39.143Z,3.65
2019-02-12T20:25:09.171Z,3.60
2019-02-12T20:27:38.065Z,3.63
2019-02-12T20:30:10.030Z,3.57
2019-02-12T20:32:38.682Z,3.54
2019-02-12T20:35:10.242Z,3.58
2019-02-12T20:37:39.485Z,3.57
2019-02-12T20:40:10.608Z,3.57
2019-02-12T20:42:39.195Z,3.44
2019-02-12T20:45:10.933Z,3.48
2019-02-12T20:47:39.433Z,3.39
2019-02-12T20:50:10.585Z,3.40
2019-02-12T20:52:39.246Z,3.36
2019-02-12T20:55:09.054Z,3.32
2019-02-12T20:57:37.641Z,3.32
2019-02-12T21:00:09.409Z,3.39
2019-02-12T21:02:37.991Z,3.43
2019-02-12T21:05:09.168Z,3.46
2019-02-12T21:07:37.795Z,3.45
2019-02-12T21:10:09.806Z,3.47
2019-02-12T21:12:38.531Z,3.47
2019-02-12T21:15:10.308Z,3.46
2019-02-12T21:17:39.664Z,3.45
2019-02-12T21:20:10.834Z,3.45
2019-02-12T21:22:41.473Z,3.35
2019-02-12T21:25:11.812Z,3.36
2019-02-12T21:27:40.616Z,3.33
2019-02-12T21:30:20.565Z,3.38
2019-02-12T21:32:49.218Z,3.44
2019-02-12T21:35:17.872Z,3.45
2019-02-12T21:37:46.661Z,3.50
2019-02-12T21:40:20.820Z,3.48
2019-02-12T21:42:49.416Z,3.40
2019-02-12T21:45:18.026Z,3.39
2019-02-12T21:47:46.788Z,3.39
2019-02-12T21:50:15.418Z,3.42
2019-02-12T21:52:44.256Z,3.47
2019-02-12T21:55:15.930Z,3.45
2019-02-12T21:57:44.564Z,3.43
2019-02-12T22:00:17.509Z,3.40
2019-02-12T22:02:46.249Z,3.46
2019-02-12T22:05:15.803Z,3.43
2019-02-12T22:07:44.459Z,3.39
2019-02-12T22:10:26.777Z,3.49
2019-02-12T22:12:55.587Z,3.45
2019-02-12T22:15:24.547Z,3.54
2019-02-12T22:17:53.085Z,3.51
2019-02-12T22:20:22.970Z,3.55
2019-02-12T22:22:51.696Z,3.46
2019-02-12T22:25:20.279Z,3.51
2019-02-12T22:27:48.856Z,3.52
2019-02-12T22:30:19.445Z,3.52
2019-02-12T22:32:48.095Z,3.53
2019-02-12T22:35:16.774Z,3.47
2019-02-12T22:37:45.388Z,3.51
2019-02-12T22:40:15.397Z,3.53
2019-02-12T22:42:44.213Z,3.60
2019-02-12T22:45:17.837Z,3.64
2019-02-12T22:47:46.720Z,3.59
2019-02-12T22:50:15.363Z,3.60
2019-02-12T22:52:46.144Z,3.57
2019-02-12T22:55:14.736Z,3.58
2019-02-12T22:57:48.998Z,3.63
2019-02-12T23:00:39.450Z,3.65
2019-02-12T23:03:08.445Z,3.67
2019-02-12T23:05:37.405Z,3.68
2019-02-12T23:08:06.157Z,3.74
2019-02-12T23:10:34.841Z,3.69
2019-02-12T23:13:03.507Z,3.76
2019-02-12T23:15:32.149Z,3.77
2019-02-12T23:18:00.598Z,3.85
2019-02-12T23:20:29.223Z,3.88
2019-02-12T23:22:58.120Z,3.89
2019-02-12T23:25:26.761Z,3.96
2019-02-12T23:27:57.672Z,3.95
2019-02-12T23:30:25.562Z,3.98
2019-02-12T23:32:54.366Z,4.01
2019-02-12T23:35:22.948Z,4.05
2019-02-12T23:37:51.434Z,4.10
2019-02-12T23:40:20.011Z,4.07
2019-02-12T23:42:48.600Z,4.13
2019-02-12T23:45:17.220Z,4.07
2019-02-12T23:47:45.873Z,4.11
2019-02-12T23:50:14.477Z,4.14
2019-02-12T23:52:43.113Z,4.16
2019-02-12T23:55:12.072Z,4.13
2019-02-12T23:57:40.599Z,4.08
